createdAt,value
2018-09-16T00:01:58.730Z,11.50
2018-09-16T00:04:31.218Z,11.00
2018-09-16T00:07:01.322Z,10.90
2018-09-16T00:09:31.511Z,10.90
2018-09-16T00:12:02.547Z,10.90
2018-09-16T00:14:32.603Z,10.80
2018-09-16T00:17:02.736Z,10.70
2018-09-16T00:19:32.790Z,10.70
2018-09-16T00:22:02.884Z,10.80
2018-09-16T00:24:32.966Z,10.90
2018-09-16T00:27:03.047Z,11.10
2018-09-16T00:29:33.263Z,11.30
2018-09-16T00:32:09.395Z,11.40
2018-09-16T00:34:39.491Z,11.40
2018-09-16T00:37:09.746Z,11.10
2018-09-16T00:39:40.947Z,10.70
2018-09-16T00:42:10.953Z,10.70
2018-09-16T00:44:41.158Z,10.50
2018-09-16T00:47:11.387Z,10.40
2018-09-16T00:49:41.694Z,10.50
2018-09-16T00:52:11.718Z,10.60
2018-09-16T00:54:41.780Z,10.50
2018-09-16T00:57:11.805Z,10.40
2018-09-16T00:59:56.953Z,10.40
2018-09-16T01:02:27.105Z,10.30
2018-09-16T01:04:57.231Z,10.30
2018-09-16T01:07:27.497Z,10.20
2018-09-16T01:09:57.841Z,10.30
2018-09-16T01:12:43.645Z,10.50
2018-09-16T01:15:13.777Z,10.70
2018-09-16T01:17:43.822Z,10.90
2018-09-16T01:20:15.223Z,10.90
2018-09-16T01:22:45.366Z,10.70
2018-09-16T01:25:15.423Z,10.60
2018-09-16T01:27:45.681Z,10.40
2018-09-16T01:30:20.484Z,10.20
2018-09-16T01:32:50.924Z,10.00
2018-09-16T01:35:22.592Z,10.00
2018-09-16T01:37:57.782Z,10.10
2018-09-16T01:40:27.873Z,10.20
2018-09-16T01:42:57.915Z,10.20
2018-09-16T01:45:29.227Z,10.10
2018-09-16T01:47:59.411Z,10.20
2018-09-16T01:50:29.454Z,10.30
2018-09-16T01:52:59.572Z,10.30
2018-09-16T01:55:29.665Z,10.30
2018-09-16T01:58:01.759Z,10.20
2018-09-16T02:00:31.860Z,9.90
2018-09-16T02:03:02.167Z,9.70
2018-09-16T02:05:37.399Z,9.70
2018-09-16T02:08:07.992Z,9.70
2018-09-16T02:10:39.152Z,9.70
2018-09-16T02:13:09.711Z,9.60
2018-09-16T02:15:40.126Z,9.50
2018-09-16T02:18:10.336Z,9.50
2018-09-16T02:20:40.498Z,9.60
2018-09-16T02:23:11.357Z,9.60
2018-09-16T02:25:42.524Z,9.60
2018-09-16T02:28:14.099Z,9.70
2018-09-16T02:30:44.304Z,9.80
2018-09-16T02:33:14.648Z,9.80
2018-09-16T02:35:44.737Z,9.70
2018-09-16T02:38:15.006Z,9.70
2018-09-16T02:40:45.073Z,9.60
2018-09-16T02:43:15.317Z,9.70
2018-09-16T02:45:45.382Z,9.90
2018-09-16T02:48:15.663Z,10.00
2018-09-16T02:50:46.007Z,10.00
2018-09-16T02:53:16.073Z,9.80
2018-09-16T02:55:46.119Z,9.70
2018-09-16T02:58:16.174Z,9.60
2018-09-16T03:00:46.329Z,9.50
2018-09-16T03:03:16.598Z,9.60
2018-09-16T03:05:48.943Z,9.60
2018-09-16T03:08:22.210Z,9.40
2018-09-16T03:10:52.315Z,9.50
2018-09-16T03:13:23.480Z,9.40
2018-09-16T03:15:53.615Z,9.30
2018-09-16T03:18:23.779Z,9.30
2018-09-16T03:20:54.051Z,9.40
2018-09-16T03:23:24.182Z,9.60
2018-09-16T03:25:54.435Z,9.60
2018-09-16T03:28:24.610Z,9.40
2018-09-16T03:30:54.681Z,9.40
2018-09-16T03:33:24.812Z,9.30
2018-09-16T03:35:54.854Z,9.40
2018-09-16T03:38:26.917Z,9.40
2018-09-16T03:40:57.062Z,9.40
2018-09-16T03:43:27.153Z,9.30
2018-09-16T03:45:57.309Z,9.20
2018-09-16T03:48:27.456Z,9.20
2018-09-16T03:50:58.074Z,9.40
2018-09-16T03:53:28.206Z,9.40
2018-09-16T03:55:58.351Z,9.30
2018-09-16T03:58:29.711Z,9.30
2018-09-16T04:00:59.886Z,9.10
2018-09-16T04:03:31.007Z,9.20
2018-09-16T04:06:01.183Z,9.10
2018-09-16T04:08:32.137Z,9.10
2018-09-16T04:11:03.423Z,9.00
2018-09-16T04:13:33.708Z,9.00
2018-09-16T04:16:03.877Z,9.00
2018-09-16T04:18:33.953Z,9.00
2018-09-16T04:21:04.069Z,9.00
2018-09-16T04:23:43.000Z,8.70
2018-09-16T04:26:13.324Z,8.70
2018-09-16T04:28:43.285Z,8.70
2018-09-16T04:31:14.851Z,8.90
2018-09-16T04:33:44.728Z,9.00
2018-09-16T04:36:14.675Z,9.00
2018-09-16T04:38:44.611Z,8.80
2018-09-16T04:41:14.530Z,8.80
2018-09-16T04:43:44.441Z,8.70
2018-09-16T04:46:14.463Z,8.80
2018-09-16T04:48:44.484Z,8.90
2018-09-16T04:51:14.934Z,9.00
2018-09-16T04:53:44.825Z,9.10
2018-09-16T04:56:14.875Z,9.30
2018-09-16T04:58:44.834Z,9.30
2018-09-16T05:01:14.744Z,9.20
2018-09-16T05:03:44.385Z,9.00
2018-09-16T05:06:14.380Z,8.90
2018-09-16T05:08:44.388Z,9.10
2018-09-16T05:11:14.271Z,9.00
2018-09-16T05:13:44.163Z,8.80
2018-09-16T05:16:13.971Z,8.70
2018-09-16T05:21:44.139Z,8.50
2018-09-16T05:24:13.947Z,8.60
2018-09-16T05:26:43.956Z,8.60
2018-09-16T05:29:13.824Z,8.70
2018-09-16T05:31:43.650Z,8.70
2018-09-16T05:34:13.663Z,8.70
2018-09-16T05:36:43.505Z,8.60
2018-09-16T05:39:13.471Z,8.60
2018-09-16T05:41:43.409Z,8.80
2018-09-16T05:44:13.447Z,8.80
2018-09-16T05:46:43.310Z,8.90
2018-09-16T05:49:13.079Z,8.90
2018-09-16T05:51:42.915Z,8.90
2018-09-16T05:54:12.968Z,8.90
2018-09-16T05:56:42.895Z,8.90
2018-09-16T05:59:13.230Z,9.00
2018-09-16T06:01:43.381Z,8.90
2018-09-16T06:04:13.376Z,9.20
2018-09-16T06:06:43.296Z,9.20
2018-09-16T06:09:15.255Z,9.30
2018-09-16T06:11:45.320Z,9.40
2018-09-16T06:14:15.267Z,9.50
2018-09-16T06:16:45.132Z,9.60
2018-09-16T06:19:15.167Z,9.60
2018-09-16T06:21:45.655Z,9.80
2018-09-16T06:24:15.551Z,9.70
2018-09-16T06:26:45.720Z,10.00
2018-09-16T06:29:16.380Z,10.00
2018-09-16T06:31:46.433Z,10.10
2018-09-16T06:34:16.423Z,10.20
2018-09-16T06:36:46.185Z,10.00
2018-09-16T06:39:16.158Z,10.00
2018-09-16T06:41:46.058Z,10.10
2018-09-16T06:44:16.102Z,10.20
2018-09-16T06:46:46.029Z,10.30
2018-09-16T06:49:15.927Z,10.30
2018-09-16T06:51:46.887Z,10.30
2018-09-16T06:54:16.725Z,10.40
2018-09-16T06:56:47.101Z,10.50
2018-09-16T06:59:17.095Z,10.60
2018-09-16T07:01:47.171Z,10.70
2018-09-16T07:04:17.013Z,10.70
2018-09-16T07:06:46.907Z,10.80
2018-09-16T07:09:17.973Z,10.70
2018-09-16T07:11:47.869Z,10.70
2018-09-16T07:14:17.764Z,10.70
2018-09-16T07:16:47.672Z,10.80
2018-09-16T07:19:17.481Z,11.00
2018-09-16T07:21:50.935Z,11.00
2018-09-16T07:24:20.828Z,11.10
2018-09-16T07:26:51.570Z,11.40
2018-09-16T07:29:21.452Z,11.60
2018-09-16T07:31:51.371Z,11.80
2018-09-16T07:34:27.951Z,11.90
2018-09-16T07:36:58.405Z,12.00
2018-09-16T07:39:28.670Z,12.20
2018-09-16T07:41:58.727Z,12.30
2018-09-16T07:44:29.206Z,12.30
2018-09-16T07:47:01.222Z,12.50
2018-09-16T07:49:31.256Z,12.50
2018-09-16T07:52:01.380Z,12.60
2018-09-16T07:54:31.426Z,12.80
2018-09-16T07:57:37.203Z,12.90
2018-09-16T08:00:07.824Z,13.10
2018-09-16T08:02:38.141Z,13.30
2018-09-16T08:05:08.612Z,13.40
2018-09-16T08:07:38.752Z,13.50
2018-09-16T08:10:09.074Z,13.70
2018-09-16T08:12:39.380Z,14.20
2018-09-16T08:15:09.928Z,14.20
2018-09-16T08:17:40.383Z,14.50
2018-09-16T08:20:10.392Z,14.60
2018-09-16T08:22:40.442Z,14.70
2018-09-16T08:25:10.467Z,14.90
2018-09-16T08:27:40.711Z,15.10
2018-09-16T08:30:10.872Z,15.40
2018-09-16T08:32:40.956Z,15.40
2018-09-16T08:35:23.216Z,15.60
2018-09-16T08:37:53.226Z,15.70
2018-09-16T08:40:23.164Z,16.00
2018-09-16T08:42:53.139Z,16.20
2018-09-16T08:45:23.136Z,16.10
2018-09-16T08:47:53.562Z,16.30
2018-09-16T08:50:23.525Z,16.40
2018-09-16T08:52:53.512Z,16.60
2018-09-16T08:55:23.634Z,16.80
2018-09-16T08:57:53.650Z,16.90
2018-09-16T09:00:23.602Z,17.10
2018-09-16T09:02:53.590Z,17.30
2018-09-16T09:05:23.730Z,17.50
2018-09-16T09:08:08.443Z,17.70
2018-09-16T09:10:38.858Z,18.00
2018-09-16T09:13:08.915Z,18.20
2018-09-16T09:15:38.971Z,18.30
2018-09-16T09:18:08.992Z,18.40
2018-09-16T09:20:39.027Z,18.40
2018-09-16T09:23:08.987Z,18.50
2018-09-16T09:25:39.004Z,18.70
2018-09-16T09:28:09.082Z,18.70
2018-09-16T09:30:39.220Z,18.90
2018-09-16T09:33:09.285Z,19.00
2018-09-16T09:35:39.617Z,19.30
2018-09-16T09:38:09.645Z,19.30
2018-09-16T09:40:39.688Z,19.40
2018-09-16T09:43:09.683Z,19.50
2018-09-16T09:45:39.699Z,19.70
2018-09-16T09:48:09.919Z,19.70
2018-09-16T09:50:40.112Z,19.80
2018-09-16T09:53:11.189Z,19.90
2018-09-16T09:55:41.327Z,20.00
2018-09-16T09:58:11.442Z,20.10
2018-09-16T10:00:46.479Z,20.20
2018-09-16T10:03:39.297Z,20.20
2018-09-16T10:06:09.775Z,20.30
2018-09-16T10:08:41.144Z,20.30
2018-09-16T10:11:11.239Z,20.40
2018-09-16T10:13:41.504Z,20.50
2018-09-16T10:16:11.429Z,20.50
2018-09-16T10:18:41.564Z,20.70
2018-09-16T10:21:11.645Z,20.80
2018-09-16T10:23:42.102Z,20.90
2018-09-16T10:26:12.320Z,21.00
2018-09-16T10:28:42.248Z,21.10
2018-09-16T10:31:12.248Z,21.10
2018-09-16T10:33:42.479Z,21.30
2018-09-16T10:36:12.579Z,21.30
2018-09-16T10:38:42.617Z,21.50
2018-09-16T10:41:13.173Z,21.60
2018-09-16T10:43:43.377Z,21.80
2018-09-16T10:46:13.453Z,21.80
2018-09-16T10:48:43.405Z,21.80
2018-09-16T10:51:13.482Z,21.80
2018-09-16T10:53:43.469Z,21.90
2018-09-16T10:56:13.527Z,21.80
2018-09-16T10:58:43.653Z,21.80
2018-09-16T11:01:13.752Z,21.90
2018-09-16T11:03:43.848Z,22.10
2018-09-16T11:06:13.731Z,22.10
2018-09-16T11:08:44.115Z,22.30
2018-09-16T11:11:14.451Z,22.30
2018-09-16T11:13:44.560Z,22.50
2018-09-16T11:16:15.051Z,22.50
2018-09-16T11:18:45.131Z,22.40
2018-09-16T11:21:15.107Z,22.60
2018-09-16T11:23:45.169Z,22.80
2018-09-16T11:26:15.505Z,22.90
2018-09-16T11:28:45.485Z,22.80
2018-09-16T11:31:15.404Z,22.80
2018-09-16T11:33:45.600Z,22.80
2018-09-16T11:36:15.687Z,22.80
2018-09-16T11:38:45.633Z,22.80
2018-09-16T11:41:15.623Z,22.80
2018-09-16T11:43:45.525Z,23.00
2018-09-16T11:46:15.384Z,23.30
2018-09-16T11:48:45.289Z,23.10
2018-09-16T11:51:15.260Z,23.20
2018-09-16T11:53:45.342Z,23.30
2018-09-16T11:56:15.570Z,23.40
2018-09-16T11:58:45.605Z,23.40
2018-09-16T12:01:15.654Z,23.40
2018-09-16T12:03:45.581Z,23.60
2018-09-16T12:06:15.515Z,23.80
2018-09-16T12:08:45.523Z,23.70
2018-09-16T12:11:15.692Z,23.70
2018-09-16T12:13:45.480Z,23.60
2018-09-16T12:16:16.033Z,23.70
2018-09-16T12:18:45.932Z,23.80
2018-09-16T12:21:15.866Z,23.90
2018-09-16T12:23:45.655Z,23.80
2018-09-16T12:26:15.530Z,23.70
2018-09-16T12:28:45.596Z,23.50
2018-09-16T12:31:15.562Z,23.70
2018-09-16T12:33:45.442Z,23.80
2018-09-16T12:36:15.644Z,23.80
2018-09-16T12:38:45.510Z,23.90
2018-09-16T12:41:15.442Z,23.90
2018-09-16T12:43:45.355Z,24.10
2018-09-16T12:46:15.343Z,24.30
2018-09-16T12:48:45.638Z,24.40
2018-09-16T12:51:15.481Z,24.30
2018-09-16T12:53:45.513Z,24.10
2018-09-16T12:56:15.568Z,24.10
2018-09-16T12:58:45.670Z,24.20
2018-09-16T13:01:15.700Z,24.20
2018-09-16T13:03:45.557Z,24.00
2018-09-16T13:06:15.427Z,24.00
2018-09-16T13:08:45.463Z,24.40
2018-09-16T13:11:15.382Z,24.40
2018-09-16T13:13:45.487Z,24.40
2018-09-16T13:16:15.652Z,24.60
2018-09-16T13:18:45.775Z,24.60
2018-09-16T13:21:15.688Z,24.40
2018-09-16T13:23:45.532Z,24.30
2018-09-16T13:26:15.496Z,24.40
2018-09-16T13:28:45.665Z,24.50
2018-09-16T13:31:15.572Z,24.50
2018-09-16T13:33:45.411Z,24.80
2018-09-16T13:36:15.369Z,24.80
2018-09-16T13:38:45.368Z,24.80
2018-09-16T13:41:15.374Z,24.90
2018-09-16T13:43:45.408Z,24.90
2018-09-16T13:46:15.351Z,25.20
2018-09-16T13:48:45.413Z,25.20
2018-09-16T13:51:15.416Z,25.10
2018-09-16T13:53:45.473Z,25.10
2018-09-16T13:56:15.328Z,25.10
2018-09-16T13:58:45.393Z,25.00
2018-09-16T14:01:15.204Z,25.00
2018-09-16T14:03:45.120Z,25.10
2018-09-16T14:06:15.151Z,25.30
2018-09-16T14:08:45.059Z,25.10
2018-09-16T14:11:15.071Z,24.90
2018-09-16T14:13:45.102Z,24.80
2018-09-16T14:16:15.108Z,24.70
2018-09-16T14:18:45.147Z,24.70
2018-09-16T14:21:14.954Z,24.80
2018-09-16T14:23:44.981Z,24.70
2018-09-16T14:26:14.995Z,24.60
2018-09-16T14:28:44.990Z,24.70
2018-09-16T14:31:14.938Z,24.70
2018-09-16T14:33:45.042Z,24.60
2018-09-16T14:36:14.967Z,24.70
2018-09-16T14:38:44.928Z,24.70
2018-09-16T14:41:14.872Z,25.10
2018-09-16T14:43:44.733Z,25.00
2018-09-16T14:46:14.807Z,25.00
2018-09-16T14:48:44.789Z,25.00
2018-09-16T14:51:14.909Z,25.10
2018-09-16T14:53:44.892Z,24.80
2018-09-16T14:56:14.843Z,25.10
2018-09-16T14:58:44.790Z,25.10
2018-09-16T15:01:15.401Z,25.20
2018-09-16T15:03:45.260Z,25.10
2018-09-16T15:06:15.187Z,25.00
2018-09-16T15:08:45.024Z,24.90
2018-09-16T15:11:15.000Z,24.70
2018-09-16T15:13:44.980Z,24.90
2018-09-16T15:16:14.712Z,24.80
2018-09-16T15:18:44.571Z,24.70
2018-09-16T15:21:14.660Z,24.90
2018-09-16T15:23:44.659Z,24.90
2018-09-16T15:26:14.628Z,24.80
2018-09-16T15:28:44.416Z,24.70
2018-09-16T15:31:14.289Z,24.80
2018-09-16T15:33:44.013Z,24.30
2018-09-16T15:36:15.893Z,24.40
2018-09-16T15:38:45.930Z,24.50
2018-09-16T15:41:15.866Z,24.30
2018-09-16T15:43:45.815Z,24.30
2018-09-16T15:46:17.160Z,24.40
2018-09-16T15:48:47.118Z,24.30
2018-09-16T15:51:17.029Z,24.30
2018-09-16T15:53:47.037Z,24.30
2018-09-16T15:56:26.565Z,24.20
2018-09-16T15:58:56.774Z,24.30
2018-09-16T16:01:26.808Z,24.10
2018-09-16T16:04:10.578Z,24.00
2018-09-16T16:06:40.443Z,23.90
2018-09-16T16:09:12.237Z,24.00
2018-09-16T16:11:42.191Z,24.00
2018-09-16T16:14:11.991Z,23.80
2018-09-16T16:16:41.932Z,23.70
2018-09-16T16:19:11.769Z,23.70
2018-09-16T16:21:41.844Z,23.40
2018-09-16T16:24:11.619Z,23.60
2018-09-16T16:26:41.493Z,23.60
2018-09-16T16:29:38.066Z,23.60
2018-09-16T16:32:08.178Z,23.50
2018-09-16T16:34:38.406Z,23.30
2018-09-16T16:37:08.430Z,23.10
2018-09-16T16:39:38.573Z,22.70
2018-09-16T16:42:08.461Z,22.70
2018-09-16T16:44:38.377Z,22.50
2018-09-16T16:47:08.503Z,22.50
2018-09-16T16:49:38.456Z,22.50
2018-09-16T16:52:08.340Z,22.60
2018-09-16T16:54:38.584Z,22.50
2018-09-16T16:57:08.435Z,22.50
2018-09-16T16:59:38.567Z,22.30
2018-09-16T17:02:08.744Z,22.20
2018-09-16T17:04:38.508Z,22.40
2018-09-16T17:07:08.714Z,22.50
2018-09-16T17:09:38.809Z,22.40
2018-09-16T17:12:10.139Z,22.10
2018-09-16T17:14:40.212Z,22.30
2018-09-16T17:17:10.110Z,22.20
2018-09-16T17:19:40.089Z,22.20
2018-09-16T17:22:09.966Z,22.20
2018-09-16T17:24:39.967Z,22.10
2018-09-16T17:27:10.501Z,22.00
2018-09-16T17:29:40.898Z,21.60
2018-09-16T17:32:11.308Z,21.70
2018-09-16T17:34:41.368Z,21.50
2018-09-16T17:37:11.290Z,21.30
2018-09-16T17:39:41.540Z,20.90
2018-09-16T17:42:11.365Z,20.80
2018-09-16T17:44:41.245Z,21.10
2018-09-16T17:47:11.416Z,21.10
2018-09-16T17:49:41.384Z,20.70
2018-09-16T17:52:11.290Z,20.80
2018-09-16T17:54:41.354Z,20.80
2018-09-16T17:57:11.771Z,20.80
2018-09-16T17:59:41.595Z,20.60
2018-09-16T18:02:11.639Z,20.10
2018-09-16T18:04:41.571Z,19.70
2018-09-16T18:07:11.709Z,19.40
2018-09-16T18:09:41.616Z,19.20
2018-09-16T18:12:11.776Z,18.90
2018-09-16T18:14:41.602Z,18.80
2018-09-16T18:17:11.491Z,18.90
2018-09-16T18:19:41.637Z,19.30
2018-09-16T18:22:11.561Z,19.60
2018-09-16T18:24:41.611Z,19.60
2018-09-16T18:27:11.583Z,19.20
2018-09-16T18:29:41.634Z,18.60
2018-09-16T18:32:11.808Z,18.40
2018-09-16T18:34:41.781Z,18.60
2018-09-16T18:37:11.916Z,18.90
2018-09-16T18:39:42.057Z,19.10
2018-09-16T18:42:11.977Z,19.10
2018-09-16T18:44:42.636Z,18.60
2018-09-16T18:47:12.731Z,18.10
2018-09-16T18:49:43.002Z,17.90
2018-09-16T18:52:13.410Z,18.20
2018-09-16T18:54:43.661Z,18.40
2018-09-16T18:57:13.764Z,18.60
2018-09-16T18:59:44.080Z,18.60
2018-09-16T19:02:14.199Z,17.90
2018-09-16T19:04:44.251Z,17.60
2018-09-16T19:07:14.439Z,17.50
2018-09-16T19:09:44.673Z,17.60
2018-09-16T19:12:15.410Z,18.00
2018-09-16T19:14:46.353Z,18.10
2018-09-16T19:17:16.174Z,18.10
2018-09-16T19:19:46.836Z,18.10
2018-09-16T19:22:16.881Z,18.10
2018-09-16T19:24:47.957Z,18.20
2018-09-16T19:27:17.979Z,18.00
2018-09-16T19:29:47.820Z,18.00
2018-09-16T19:32:17.929Z,18.10
2018-09-16T19:34:48.058Z,18.10
2018-09-16T19:37:18.475Z,18.10
2018-09-16T19:39:48.502Z,18.10
2018-09-16T19:42:18.629Z,18.00
2018-09-16T19:44:48.771Z,18.00
2018-09-16T19:47:18.753Z,17.70
2018-09-16T19:49:48.726Z,17.50
2018-09-16T19:52:19.591Z,17.70
2018-09-16T19:54:49.728Z,17.80
2018-09-16T19:57:19.617Z,17.50
2018-09-16T19:59:49.901Z,17.10
2018-09-16T20:02:19.987Z,16.70
2018-09-16T20:04:50.278Z,16.50
2018-09-16T20:07:20.472Z,16.30
2018-09-16T20:09:50.707Z,16.30
2018-09-16T20:12:20.774Z,16.50
2018-09-16T20:14:50.700Z,16.40
2018-09-16T20:17:20.504Z,16.20
2018-09-16T20:19:50.521Z,16.10
2018-09-16T20:22:20.621Z,16.00
2018-09-16T20:24:50.563Z,16.30
2018-09-16T20:27:20.437Z,16.50
2018-09-16T20:29:50.432Z,16.70
2018-09-16T20:32:20.280Z,16.80
2018-09-16T20:34:50.328Z,16.70
2018-09-16T20:37:20.269Z,16.70
2018-09-16T20:39:50.277Z,16.70
2018-09-16T20:42:20.062Z,16.60
2018-09-16T20:44:50.193Z,16.00
2018-09-16T20:47:19.995Z,15.70
2018-09-16T20:49:49.840Z,15.80
2018-09-16T20:52:19.804Z,16.00
2018-09-16T20:54:49.824Z,16.20
2018-09-16T20:57:19.738Z,16.60
2018-09-16T20:59:49.814Z,16.70
2018-09-16T21:02:19.957Z,16.70
2018-09-16T21:04:51.253Z,16.70
2018-09-16T21:07:21.831Z,16.70
2018-09-16T21:09:52.323Z,16.30
2018-09-16T21:12:22.213Z,16.00
2018-09-16T21:14:52.277Z,15.60
2018-09-16T21:17:22.434Z,15.80
2018-09-16T21:19:52.344Z,15.70
2018-09-16T21:22:22.360Z,15.50
2018-09-16T21:24:52.560Z,15.00
2018-09-16T21:27:22.647Z,14.70
2018-09-16T21:29:52.591Z,14.80
2018-09-16T21:32:22.684Z,14.70
2018-09-16T21:34:52.684Z,14.50
2018-09-16T21:37:22.755Z,14.60
2018-09-16T21:39:52.775Z,14.70
2018-09-16T21:42:22.636Z,15.30
2018-09-16T21:44:52.484Z,15.60
2018-09-16T21:47:22.414Z,15.60
2018-09-16T21:49:52.519Z,15.40
2018-09-16T21:52:22.339Z,15.10
2018-09-16T21:54:52.173Z,14.60
2018-09-16T21:57:22.292Z,14.50
2018-09-16T21:59:52.319Z,14.20
2018-09-16T22:02:22.117Z,14.10
2018-09-16T22:04:52.203Z,14.30
2018-09-16T22:07:22.305Z,14.30
2018-09-16T22:09:52.124Z,14.10
2018-09-16T22:12:22.157Z,14.20
2018-09-16T22:14:51.986Z,14.30
2018-09-16T22:17:21.764Z,14.60
2018-09-16T22:19:51.835Z,14.70
2018-09-16T22:22:21.725Z,14.80
2018-09-16T22:24:51.861Z,14.50
2018-09-16T22:27:21.932Z,14.60
2018-09-16T22:29:52.028Z,14.60
2018-09-16T22:32:22.633Z,14.10
2018-09-16T22:34:52.503Z,13.50
2018-09-16T22:37:22.497Z,13.80
2018-09-16T22:39:52.328Z,14.00
2018-09-16T22:42:22.322Z,14.40
2018-09-16T22:44:52.478Z,14.70
2018-09-16T22:47:22.476Z,14.10
2018-09-16T22:49:52.616Z,14.10
2018-09-16T22:52:22.763Z,13.50
2018-09-16T22:54:52.727Z,13.70
2018-09-16T22:57:22.614Z,13.30
2018-09-16T22:59:52.575Z,13.70
2018-09-16T23:02:22.569Z,13.30
2018-09-16T23:04:52.826Z,13.40
2018-09-16T23:07:22.770Z,13.30
2018-09-16T23:09:54.160Z,13.50
2018-09-16T23:12:24.882Z,13.00
2018-09-16T23:14:54.960Z,12.80
2018-09-16T23:17:25.187Z,12.70
2018-09-16T23:19:55.232Z,13.00
2018-09-16T23:22:25.490Z,13.20
2018-09-16T23:24:55.409Z,13.50
2018-09-16T23:27:33.419Z,13.90
2018-09-16T23:30:03.468Z,13.80
2018-09-16T23:32:33.738Z,13.60
2018-09-16T23:35:03.653Z,12.80
2018-09-16T23:37:33.795Z,12.60
2018-09-16T23:40:03.730Z,12.40
2018-09-16T23:42:33.725Z,12.50
2018-09-16T23:45:03.822Z,12.60
2018-09-16T23:47:33.843Z,13.20
2018-09-16T23:50:04.004Z,13.60
2018-09-16T23:52:34.138Z,14.00
2018-09-16T23:55:06.607Z,14.10
2018-09-16T23:57:40.256Z,13.70
